createdAt,value
2023-02-22T00:00:34.716Z,97.45
2023-02-22T00:03:01.248Z,97.52
2023-02-22T00:05:28.584Z,96.80
2023-02-22T00:07:58.694Z,97.12
2023-02-22T00:10:25.295Z,96.89
2023-02-22T00:12:53.414Z,96.81
2023-02-22T00:15:22.719Z,97.07
2023-02-22T00:17:49.316Z,97.47
2023-02-22T00:20:19.892Z,97.09
2023-02-22T00:22:49.490Z,97.28
2023-02-22T00:25:19.865Z,97.38
2023-02-22T00:27:52.683Z,97.21
2023-02-22T00:30:26.975Z,97.60
2023-02-22T00:32:55.978Z,97.49
2023-02-22T00:35:27.178Z,97.56
2023-02-22T00:37:56.972Z,97.61
2023-02-22T00:40:27.077Z,97.30
2023-02-22T00:42:53.900Z,97.50
2023-02-22T00:45:23.349Z,97.38
2023-02-22T00:47:50.588Z,97.85
2023-02-22T00:50:18.610Z,97.70
2023-02-22T00:52:45.697Z,97.66
2023-02-22T00:55:26.886Z,97.70
2023-02-22T00:57:54.216Z,97.48
2023-02-22T01:00:28.031Z,97.41
2023-02-22T01:02:55.971Z,98.31
2023-02-22T01:05:25.918Z,97.64
2023-02-22T01:07:53.321Z,97.67
2023-02-22T01:10:21.778Z,97.69
2023-02-22T01:12:49.958Z,97.69
2023-02-22T01:15:21.790Z,97.45
2023-02-22T01:17:49.824Z,97.63
2023-02-22T01:20:16.771Z,97.63
2023-02-22T01:22:47.175Z,97.66
2023-02-22T01:25:19.470Z,97.92
2023-02-22T01:27:45.930Z,97.67
2023-02-22T01:30:15.086Z,97.81
2023-02-22T01:32:42.996Z,98.05
2023-02-22T01:35:13.716Z,97.47
2023-02-22T01:37:41.305Z,98.37
2023-02-22T01:40:10.150Z,97.70
2023-02-22T01:42:37.163Z,97.71
2023-02-22T01:45:32.627Z,98.06
2023-02-22T01:48:05.557Z,98.19
2023-02-22T01:50:35.488Z,97.94
2023-02-22T01:53:03.221Z,98.40
2023-02-22T01:55:30.613Z,97.74
2023-02-22T01:57:57.603Z,98.01
2023-02-22T02:00:27.580Z,98.50
2023-02-22T02:03:00.072Z,98.30
2023-02-22T02:05:28.052Z,98.39
2023-02-22T02:07:54.470Z,97.76
2023-02-22T02:10:21.575Z,98.32
2023-02-22T02:12:50.647Z,97.80
2023-02-22T02:15:34.923Z,97.52
2023-02-22T02:18:04.778Z,97.57
2023-02-22T02:20:58.769Z,97.27
2023-02-22T02:23:47.488Z,97.16
2023-02-22T02:26:32.419Z,97.17
2023-02-22T02:29:22.248Z,97.15
2023-02-22T02:32:06.119Z,96.91
2023-02-22T02:34:58.243Z,97.31
2023-02-22T02:37:36.829Z,96.83
2023-02-22T02:40:22.206Z,96.67
2023-02-22T02:43:05.115Z,97.10
2023-02-22T02:45:49.554Z,96.83
2023-02-22T02:48:18.945Z,96.66
2023-02-22T02:50:48.735Z,96.64
2023-02-22T02:53:21.136Z,96.84
2023-02-22T02:55:47.842Z,96.86
2023-02-22T02:58:20.153Z,96.50
2023-02-22T03:00:49.892Z,97.06
2023-02-22T03:03:34.784Z,96.48
2023-02-22T03:06:34.546Z,96.29
2023-02-22T03:09:39.101Z,96.19
2023-02-22T03:12:20.837Z,96.17
2023-02-22T03:15:09.197Z,96.34
2023-02-22T03:17:53.406Z,96.71
2023-02-22T03:20:32.109Z,96.77
2023-02-22T03:23:19.191Z,96.33
2023-02-22T03:25:53.631Z,96.42
2023-02-22T03:28:26.315Z,96.61
2023-02-22T03:31:05.980Z,96.66
2023-02-22T03:33:48.863Z,96.44
2023-02-22T03:36:39.105Z,96.67
2023-02-22T03:39:10.918Z,96.59
2023-02-22T03:41:39.121Z,96.57
2023-02-22T03:44:11.792Z,96.30
2023-02-22T03:46:40.915Z,96.68
2023-02-22T03:49:51.325Z,96.70
2023-02-22T03:52:18.910Z,96.27
2023-02-22T03:54:45.853Z,96.76
2023-02-22T03:57:18.889Z,96.92
2023-02-22T03:59:46.228Z,96.83
2023-02-22T04:02:12.666Z,97.07
2023-02-22T04:04:39.641Z,96.57
2023-02-22T04:07:06.101Z,97.09
2023-02-22T04:09:32.806Z,96.69
2023-02-22T04:11:59.239Z,96.42
2023-02-22T04:14:25.942Z,97.20
2023-02-22T04:16:52.873Z,97.03
2023-02-22T04:19:19.385Z,97.41
2023-02-22T04:21:45.961Z,97.11
2023-02-22T04:24:12.631Z,97.35
2023-02-22T04:26:39.062Z,97.37
2023-02-22T04:29:05.485Z,97.38
2023-02-22T04:31:33.750Z,97.79
2023-02-22T04:34:02.400Z,97.91
2023-02-22T04:36:31.762Z,97.77
2023-02-22T04:38:59.203Z,97.74
2023-02-22T04:41:25.778Z,98.15
2023-02-22T04:43:52.421Z,98.03
2023-02-22T04:46:19.856Z,98.02
2023-02-22T04:48:46.304Z,98.20
2023-02-22T04:51:13.100Z,98.22
2023-02-22T04:53:39.635Z,98.45
2023-02-22T04:56:06.415Z,98.54
2023-02-22T04:58:32.880Z,98.62
2023-02-22T05:01:00.953Z,98.38
2023-02-22T05:03:27.451Z,98.20
2023-02-22T05:05:54.025Z,98.50
2023-02-22T05:08:20.510Z,98.41
2023-02-22T05:10:46.936Z,98.64
2023-02-22T05:13:13.409Z,98.61
2023-02-22T05:15:39.856Z,98.40
2023-02-22T05:18:06.286Z,98.99
2023-02-22T05:20:35.433Z,99.07
2023-02-22T05:23:02.850Z,99.14
2023-02-22T05:25:29.734Z,98.85
2023-02-22T05:27:59.437Z,99.17
2023-02-22T05:30:28.747Z,99.04
2023-02-22T05:32:55.566Z,99.44
2023-02-22T05:35:23.402Z,99.45
2023-02-22T05:37:50.841Z,99.32
2023-02-22T05:40:23.138Z,99.82
2023-02-22T05:42:50.775Z,99.33
2023-02-22T05:45:19.517Z,99.48
2023-02-22T05:47:46.594Z,99.91
2023-02-22T05:50:13.986Z,100.00
2023-02-22T05:52:41.963Z,99.93
2023-02-22T05:55:10.268Z,100.00
2023-02-22T05:57:36.800Z,100.00
2023-02-22T06:00:06.869Z,100.00
2023-02-22T06:02:34.017Z,100.00
2023-02-22T06:05:00.780Z,100.00
2023-02-22T06:07:27.294Z,100.00
2023-02-22T06:09:53.870Z,100.00
2023-02-22T06:12:20.603Z,100.00
2023-02-22T06:14:47.068Z,100.00
2023-02-22T06:17:15.306Z,100.00
2023-02-22T06:19:41.917Z,100.00
2023-02-22T06:22:15.863Z,100.00
2023-02-22T06:24:42.294Z,100.00
2023-02-22T06:27:08.873Z,100.00
2023-02-22T06:29:35.282Z,100.00
2023-02-22T06:32:02.068Z,100.00
2023-02-22T06:34:28.555Z,100.00
2023-02-22T06:36:54.989Z,100.00
2023-02-22T06:39:21.412Z,100.00
2023-02-22T06:41:48.201Z,100.00
2023-02-22T06:44:15.311Z,100.00
2023-02-22T06:46:49.301Z,100.00
2023-02-22T06:49:15.745Z,100.00
2023-02-22T06:51:42.313Z,100.00
2023-02-22T06:54:09.764Z,100.00
2023-02-22T06:56:36.202Z,100.00
2023-02-22T06:59:02.962Z,100.00
2023-02-22T07:01:29.841Z,100.00
2023-02-22T07:03:56.646Z,100.00
2023-02-22T07:06:23.650Z,100.00
2023-02-22T07:08:50.158Z,100.00
2023-02-22T07:11:17.615Z,100.00
2023-02-22T07:13:44.284Z,100.00
2023-02-22T07:16:10.871Z,100.00
2023-02-22T07:18:37.448Z,100.00
2023-02-22T07:21:04.564Z,100.00
2023-02-22T07:23:31.013Z,100.00
2023-02-22T07:26:00.654Z,100.00
2023-02-22T07:28:27.193Z,100.00
2023-02-22T07:30:53.674Z,100.00
2023-02-22T07:33:20.160Z,100.00
2023-02-22T07:35:48.934Z,100.00
2023-02-22T07:38:17.374Z,100.00
2023-02-22T07:40:45.040Z,100.00
2023-02-22T07:43:19.942Z,100.00
2023-02-22T07:45:48.132Z,100.00
2023-02-22T07:48:17.760Z,100.00
2023-02-22T07:50:44.929Z,100.00
2023-02-22T07:53:18.295Z,100.00
2023-02-22T07:55:45.078Z,100.00
2023-02-22T07:58:15.865Z,100.00
2023-02-22T08:00:44.123Z,100.00
2023-02-22T08:03:13.468Z,100.00
2023-02-22T08:05:42.241Z,100.00
2023-02-22T08:08:08.822Z,100.00
2023-02-22T08:10:36.091Z,100.00
2023-02-22T08:13:03.513Z,100.00
2023-02-22T08:15:38.328Z,100.00
2023-02-22T08:18:10.316Z,100.00
2023-02-22T08:20:38.450Z,100.00
2023-02-22T08:23:06.220Z,100.00
2023-02-22T08:25:33.088Z,100.00
2023-02-22T08:28:01.929Z,100.00
2023-02-22T08:30:30.791Z,100.00
2023-02-22T08:32:58.392Z,100.00
2023-02-22T08:35:25.618Z,100.00
2023-02-22T08:37:54.042Z,100.00
2023-02-22T08:40:23.306Z,100.00
2023-02-22T08:42:49.805Z,100.00
2023-02-22T08:45:16.998Z,100.00
2023-02-22T08:47:43.693Z,100.00
2023-02-22T08:50:16.792Z,100.00
2023-02-22T08:52:43.371Z,100.00
2023-02-22T08:55:09.917Z,100.00
2023-02-22T08:57:36.344Z,100.00
2023-02-22T09:00:05.144Z,100.00
2023-02-22T09:02:31.600Z,100.00
2023-02-22T09:04:58.063Z,100.00
2023-02-22T09:07:24.697Z,100.00
2023-02-22T09:09:51.145Z,100.00
2023-02-22T09:12:17.587Z,100.00
2023-02-22T09:14:44.057Z,100.00
2023-02-22T09:17:10.489Z,100.00
2023-02-22T09:19:36.967Z,100.00
2023-02-22T09:22:03.456Z,100.00
2023-02-22T09:24:30.410Z,100.00
2023-02-22T09:26:56.910Z,100.00
2023-02-22T09:29:25.889Z,100.00
2023-02-22T09:31:54.326Z,100.00
2023-02-22T09:34:29.545Z,100.00
2023-02-22T09:36:57.744Z,100.00
2023-02-22T09:39:24.494Z,100.00
2023-02-22T09:41:59.682Z,100.00
2023-02-22T09:44:55.817Z,100.00
2023-02-22T09:47:32.500Z,100.00
2023-02-22T09:50:22.640Z,100.00
2023-02-22T09:53:18.176Z,100.00
2023-02-22T09:55:49.743Z,100.00
2023-02-22T09:58:27.281Z,100.00
2023-02-22T10:01:05.104Z,100.00
2023-02-22T10:03:46.637Z,100.00
2023-02-22T10:06:16.277Z,100.00
2023-02-22T10:08:45.083Z,100.00
2023-02-22T10:11:29.861Z,100.00
2023-02-22T10:14:08.562Z,100.00
2023-02-22T10:16:57.091Z,100.00
2023-02-22T10:19:47.602Z,99.75
2023-02-22T10:22:19.123Z,100.00
2023-02-22T10:25:00.618Z,99.70
2023-02-22T10:27:53.211Z,99.09
2023-02-22T10:30:42.312Z,99.72
2023-02-22T10:33:22.544Z,98.68
2023-02-22T10:35:51.641Z,97.85
2023-02-22T10:38:30.388Z,97.31
2023-02-22T10:41:08.935Z,96.86
2023-02-22T10:43:43.008Z,97.36
2023-02-22T10:46:15.291Z,97.31
2023-02-22T10:48:44.765Z,97.17
2023-02-22T10:51:11.667Z,96.42
2023-02-22T10:53:41.069Z,95.76
2023-02-22T10:56:22.295Z,95.49
2023-02-22T10:59:02.347Z,95.59
2023-02-22T11:01:31.814Z,94.54
2023-02-22T11:04:10.818Z,94.44
2023-02-22T11:06:38.529Z,94.63
2023-02-22T11:09:10.397Z,94.21
2023-02-22T11:11:38.239Z,94.35
2023-02-22T11:14:06.793Z,94.09
2023-02-22T11:16:36.448Z,94.39
2023-02-22T11:19:30.907Z,94.56
2023-02-22T11:22:10.035Z,95.73
2023-02-22T11:27:28.691Z,94.75
2023-02-22T11:30:07.689Z,95.20
2023-02-22T11:32:36.574Z,95.20
2023-02-22T11:35:28.150Z,95.67
2023-02-22T11:38:10.536Z,95.40
2023-02-22T11:40:36.970Z,95.50
2023-02-22T11:43:16.002Z,94.90
2023-02-22T11:46:08.418Z,94.69
2023-02-22T11:48:39.542Z,93.92
2023-02-22T11:51:14.088Z,92.55
2023-02-22T11:53:55.112Z,90.96
2023-02-22T11:56:38.359Z,91.59
2023-02-22T11:59:23.403Z,91.23
2023-02-22T12:02:08.622Z,91.80
2023-02-22T12:04:53.219Z,91.32
2023-02-22T12:07:19.746Z,91.88
2023-02-22T12:09:55.165Z,92.05
2023-02-22T12:12:36.891Z,92.19
2023-02-22T12:15:31.821Z,92.35
2023-02-22T12:18:18.537Z,92.55
2023-02-22T12:20:56.837Z,92.68
2023-02-22T12:23:40.856Z,92.56
2023-02-22T12:26:28.164Z,93.44
2023-02-22T12:29:06.316Z,93.55
2023-02-22T12:31:58.147Z,93.83
2023-02-22T12:34:27.704Z,93.79
2023-02-22T12:37:05.902Z,93.67
2023-02-22T12:40:08.470Z,93.58
2023-02-22T12:42:47.034Z,93.53
2023-02-22T12:45:27.146Z,93.10
2023-02-22T12:48:17.368Z,92.43
2023-02-22T12:50:47.456Z,92.09
2023-02-22T12:53:21.245Z,91.86
2023-02-22T12:55:56.602Z,91.90
2023-02-22T12:58:49.424Z,90.83
2023-02-22T13:01:24.110Z,90.45
2023-02-22T13:03:50.606Z,91.10
2023-02-22T13:06:17.524Z,90.67
2023-02-22T13:09:24.506Z,90.38
2023-02-22T13:12:16.730Z,90.59
2023-02-22T13:15:05.178Z,90.40
2023-02-22T13:17:43.064Z,90.01
2023-02-22T13:20:30.660Z,89.88
2023-02-22T13:23:13.902Z,89.34
2023-02-22T13:25:45.758Z,89.00
2023-02-22T13:28:32.148Z,89.74
2023-02-22T13:31:21.059Z,89.33
2023-02-22T13:34:06.411Z,89.76
2023-02-22T13:36:41.845Z,90.00
2023-02-22T13:39:17.747Z,90.17
2023-02-22T13:41:51.389Z,90.38
2023-02-22T13:44:38.454Z,89.74
2023-02-22T13:47:23.791Z,89.89
2023-02-22T13:50:15.727Z,89.54
2023-02-22T13:52:43.640Z,90.07
2023-02-22T13:55:36.738Z,90.30
2023-02-22T13:58:06.515Z,90.31
2023-02-22T14:00:41.259Z,89.70
2023-02-22T14:03:29.974Z,89.54
2023-02-22T14:06:00.917Z,90.09
2023-02-22T14:08:31.339Z,89.77
2023-02-22T14:10:59.551Z,90.05
2023-02-22T14:13:32.233Z,89.76
2023-02-22T14:16:02.485Z,89.69
2023-02-22T14:18:42.522Z,89.70
2023-02-22T14:21:12.046Z,89.61
2023-02-22T14:23:42.650Z,89.17
2023-02-22T14:26:22.732Z,89.69
2023-02-22T14:28:55.247Z,89.06
2023-02-22T14:31:35.613Z,89.36
2023-02-22T14:34:17.565Z,89.52
2023-02-22T14:37:01.159Z,89.18
2023-02-22T14:39:51.407Z,89.43
2023-02-22T14:42:27.259Z,89.21
2023-02-22T14:45:21.752Z,89.22
2023-02-22T14:48:13.627Z,89.40
2023-02-22T14:50:40.045Z,89.71
2023-02-22T14:53:12.705Z,89.18
2023-02-22T14:55:47.619Z,88.73
2023-02-22T14:58:26.205Z,88.58
2023-02-22T15:00:56.764Z,88.12
2023-02-22T15:03:38.253Z,88.60
2023-02-22T15:06:06.033Z,88.71
2023-02-22T15:08:34.234Z,88.64
2023-02-22T15:11:02.371Z,88.51
2023-02-22T15:13:34.247Z,88.82
2023-02-22T15:16:04.306Z,89.37
2023-02-22T15:18:57.983Z,89.09
2023-02-22T15:21:27.617Z,89.75
2023-02-22T15:24:01.687Z,89.79
2023-02-22T15:26:38.848Z,90.06
2023-02-22T15:29:13.182Z,90.17
2023-02-22T15:31:41.395Z,89.76
2023-02-22T15:34:16.883Z,89.85
2023-02-22T15:36:45.215Z,89.74
2023-02-22T15:39:44.255Z,90.34
2023-02-22T15:42:21.079Z,90.26
2023-02-22T15:44:49.693Z,90.44
2023-02-22T15:47:21.775Z,90.77
2023-02-22T15:50:21.203Z,90.89
2023-02-22T15:53:02.746Z,91.11
2023-02-22T15:55:38.384Z,91.08
2023-02-22T15:58:23.935Z,90.78
2023-02-22T16:01:03.152Z,90.80
2023-02-22T16:03:48.537Z,90.75
2023-02-22T16:06:30.479Z,91.36
2023-02-22T16:09:00.198Z,90.86
2023-02-22T16:11:40.813Z,91.16
2023-02-22T16:14:31.138Z,91.49
2023-02-22T16:17:30.726Z,91.43
2023-02-22T16:19:59.212Z,91.78
2023-02-22T16:22:33.808Z,91.64
2023-02-22T16:25:27.449Z,91.95
2023-02-22T16:27:58.027Z,92.25
2023-02-22T16:30:35.150Z,92.27
2023-02-22T16:33:05.772Z,92.14
2023-02-22T16:35:35.438Z,92.12
2023-02-22T16:38:03.352Z,92.13
2023-02-22T16:40:52.237Z,92.53
2023-02-22T16:43:22.575Z,92.79
2023-02-22T16:45:49.099Z,91.91
2023-02-22T16:48:19.622Z,93.06
2023-02-22T16:50:47.965Z,92.93
2023-02-22T16:53:20.003Z,92.70
2023-02-22T16:55:51.830Z,92.50
2023-02-22T16:58:19.265Z,93.05
2023-02-22T17:00:45.781Z,92.88
2023-02-22T17:03:18.299Z,92.73
2023-02-22T17:05:44.980Z,93.29
2023-02-22T17:08:11.624Z,93.30
2023-02-22T17:10:38.147Z,93.34
2023-02-22T17:13:21.888Z,93.33
2023-02-22T17:15:50.116Z,94.02
2023-02-22T17:18:22.664Z,94.08
2023-02-22T17:20:54.393Z,93.82
2023-02-22T17:23:22.451Z,94.53
2023-02-22T17:25:53.575Z,94.30
2023-02-22T17:28:21.223Z,93.86
2023-02-22T17:30:49.006Z,94.47
2023-02-22T17:33:19.085Z,94.26
2023-02-22T17:35:47.027Z,94.87
2023-02-22T17:38:18.482Z,94.28
2023-02-22T17:40:51.970Z,93.97
2023-02-22T17:43:19.411Z,94.32
2023-02-22T17:45:46.209Z,94.66
2023-02-22T17:48:13.905Z,94.00
2023-02-22T17:50:42.144Z,94.71
2023-02-22T17:53:10.955Z,94.52
2023-02-22T17:55:40.571Z,94.89
2023-02-22T17:58:14.497Z,94.39
2023-02-22T18:00:44.776Z,94.89
2023-02-22T18:03:21.202Z,94.42
2023-02-22T18:05:50.037Z,95.11
2023-02-22T18:08:16.592Z,94.56
2023-02-22T18:10:44.109Z,94.63
2023-02-22T18:13:16.695Z,95.11
2023-02-22T18:15:43.585Z,94.57
2023-02-22T18:18:10.102Z,95.25
2023-02-22T18:20:39.192Z,94.82
2023-02-22T18:23:07.552Z,95.15
2023-02-22T18:25:35.818Z,94.86
2023-02-22T18:28:06.824Z,95.43
2023-02-22T18:30:35.925Z,95.43
2023-02-22T18:33:03.693Z,95.40
2023-02-22T18:35:30.490Z,95.73
2023-02-22T18:37:56.918Z,95.79
2023-02-22T18:40:23.843Z,95.30
2023-02-22T18:42:50.297Z,95.42
2023-02-22T18:45:17.198Z,95.18
2023-02-22T18:47:45.541Z,95.93
2023-02-22T18:50:13.189Z,95.63
2023-02-22T18:52:46.340Z,96.33
2023-02-22T18:55:18.292Z,95.77
2023-02-22T18:57:45.852Z,96.50
2023-02-22T19:00:15.891Z,96.58
2023-02-22T19:02:45.562Z,97.11
2023-02-22T19:05:17.289Z,96.75
2023-02-22T19:07:45.096Z,96.69
2023-02-22T19:10:11.651Z,97.12
2023-02-22T19:12:38.248Z,96.67
2023-02-22T19:15:04.905Z,96.99
2023-02-22T19:17:32.576Z,96.63
2023-02-22T19:19:59.081Z,97.37
2023-02-22T19:22:32.754Z,97.57
2023-02-22T19:25:01.227Z,97.75
2023-02-22T19:27:31.348Z,98.12
2023-02-22T19:29:58.594Z,97.95
2023-02-22T19:32:25.523Z,97.74
2023-02-22T19:34:53.135Z,97.87
2023-02-22T19:37:22.727Z,97.47
2023-02-22T19:39:49.232Z,98.27
2023-02-22T19:42:15.646Z,97.71
2023-02-22T19:44:42.172Z,98.26
2023-02-22T19:47:10.018Z,97.92
2023-02-22T19:49:37.742Z,98.30
2023-02-22T19:52:06.532Z,97.96
2023-02-22T19:54:33.536Z,98.45
2023-02-22T19:57:00.602Z,98.44
2023-02-22T19:59:27.402Z,97.83
2023-02-22T20:01:54.829Z,98.01
2023-02-22T20:04:21.841Z,98.75
2023-02-22T20:06:54.739Z,98.58
2023-02-22T20:09:29.731Z,98.99
2023-02-22T20:11:56.529Z,98.90
2023-02-22T20:14:26.198Z,98.77
2023-02-22T20:16:53.796Z,98.94
2023-02-22T20:19:22.460Z,99.27
2023-02-22T20:21:49.519Z,98.74
2023-02-22T20:24:18.266Z,99.07
2023-02-22T20:26:46.414Z,98.56
2023-02-22T20:29:13.991Z,98.76
2023-02-22T20:31:42.064Z,98.34
2023-02-22T20:34:09.987Z,98.94
2023-02-22T20:36:38.637Z,99.15
2023-02-22T20:39:07.508Z,98.39
2023-02-22T20:41:35.535Z,98.57
2023-02-22T20:44:03.290Z,99.19
2023-02-22T20:46:37.348Z,98.29
2023-02-22T20:49:07.448Z,99.12
2023-02-22T20:51:34.983Z,98.67
2023-02-22T20:54:01.630Z,98.33
2023-02-22T20:56:30.340Z,98.61
2023-02-22T20:58:58.354Z,97.97
2023-02-22T21:01:25.651Z,98.61
2023-02-22T21:03:52.157Z,98.25
2023-02-22T21:06:21.450Z,98.18
2023-02-22T21:08:53.800Z,98.09
2023-02-22T21:11:21.482Z,98.41
2023-02-22T21:13:48.168Z,98.22
2023-02-22T21:16:27.240Z,98.40
2023-02-22T21:18:56.392Z,97.58
2023-02-22T21:21:23.540Z,98.79
2023-02-22T21:23:52.379Z,98.05
2023-02-22T21:26:23.628Z,98.15
2023-02-22T21:28:52.072Z,98.18
2023-02-22T21:31:21.798Z,98.81
2023-02-22T21:33:50.916Z,98.78
2023-02-22T21:36:18.313Z,99.38
2023-02-22T21:38:48.898Z,98.66
2023-02-22T21:41:17.386Z,99.08
2023-02-22T21:43:48.419Z,98.74
2023-02-22T21:46:14.881Z,99.48
2023-02-22T21:48:45.087Z,98.95
2023-02-22T21:51:14.024Z,99.15
2023-02-22T21:53:48.632Z,98.96
2023-02-22T21:56:23.032Z,99.73
2023-02-22T21:59:14.122Z,99.45
2023-02-22T22:01:49.901Z,99.82
2023-02-22T22:04:19.544Z,99.33
2023-02-22T22:06:48.963Z,98.94
2023-02-22T22:09:18.320Z,99.17
2023-02-22T22:11:53.485Z,99.67
2023-02-22T22:14:23.158Z,99.38
2023-02-22T22:16:51.924Z,98.74
2023-02-22T22:19:18.442Z,99.49
2023-02-22T22:21:46.678Z,99.93
2023-02-22T22:24:13.375Z,99.58
2023-02-22T22:26:40.093Z,99.64
2023-02-22T22:29:09.915Z,99.53
2023-02-22T22:31:36.493Z,99.70
2023-02-22T22:34:03.036Z,100.00
2023-02-22T22:36:29.528Z,99.97
2023-02-22T22:38:58.821Z,99.58
2023-02-22T22:41:28.101Z,99.83
2023-02-22T22:43:55.122Z,99.68
2023-02-22T22:46:21.927Z,99.86
2023-02-22T22:48:48.599Z,99.64
2023-02-22T22:51:20.894Z,100.00
2023-02-22T22:53:49.497Z,99.38
2023-02-22T22:56:19.197Z,99.94
2023-02-22T22:58:50.791Z,99.77
2023-02-22T23:01:19.562Z,99.46
2023-02-22T23:03:56.528Z,99.89
2023-02-22T23:06:27.214Z,99.91
2023-02-22T23:08:59.933Z,99.80
2023-02-22T23:11:33.564Z,99.70
2023-02-22T23:14:03.065Z,100.00
2023-02-22T23:16:29.525Z,100.00
2023-02-22T23:18:55.943Z,100.00
2023-02-22T23:21:24.384Z,100.00
2023-02-22T23:23:59.708Z,100.00
2023-02-22T23:26:26.884Z,100.00
2023-02-22T23:28:56.289Z,100.00
2023-02-22T23:31:23.761Z,100.00
2023-02-22T23:33:50.728Z,100.00
2023-02-22T23:36:18.701Z,100.00
2023-02-22T23:38:45.859Z,100.00
2023-02-22T23:41:16.646Z,100.00
2023-02-22T23:43:44.898Z,100.00
2023-02-22T23:46:18.576Z,100.00
2023-02-22T23:48:54.407Z,100.00
2023-02-22T23:51:26.394Z,100.00
2023-02-22T23:53:57.204Z,100.00
2023-02-22T23:56:27.368Z,100.00
2023-02-22T23:58:57.268Z,100.00
